Time;durP1;ratioP1;P1;durP2;ratioP2;P2;SDS_P1;SDS_P2;PMS_P1;PMS_P2;Temp;Humidity;BMP_temperature;BMP_pressure;BME280_temperature;BME280_humidity;BME280_pressure;Samples;Min_cycle;Max_cycle;Signal;HPM_P1;HPM_P2
2022/09/30 00:01:43;;;;;;;4.13;3.25;;;;;;;7.78;100.00;99906.44;5024217;28;20645;-78
2022/09/30 00:04:13;;;;;;;5.18;3.78;;;;;;;7.74;100.00;99913.66;5025876;28;20079;-78
2022/09/30 00:06:39;;;;;;;5.03;3.42;;;;;;;7.73;100.00;99909.25;5055278;28;20028;-78
2022/09/30 00:09:04;;;;;;;4.88;3.30;;;;;;;7.68;100.00;99906.53;5030372;28;20028;-78
2022/09/30 00:11:32;;;;;;;3.95;3.38;;;;;;;7.69;100.00;99910.09;5027211;28;20056;-79
2022/09/30 00:13:58;;;;;;;4.20;3.25;;;;;;;7.66;100.00;99911.53;5041501;28;20053;-78
2022/09/30 00:16:25;;;;;;;5.43;3.05;;;;;;;7.65;100.00;99920.09;4991473;28;20028;-78
2022/09/30 00:18:52;;;;;;;4.90;2.92;;;;;;;7.61;100.00;99912.38;5028679;28;20389;-79
2022/09/30 00:21:18;;;;;;;8.77;3.20;;;;;;;7.59;100.00;99916.56;5041420;28;20029;-78
2022/09/30 00:23:43;;;;;;;6.03;2.97;;;;;;;7.55;100.00;99923.75;5040629;28;20046;-79
2022/09/30 00:26:14;;;;;;;6.00;3.00;;;;;;;7.55;100.00;99904.41;5025381;28;20110;-78
2022/09/30 00:28:40;;;;;;;4.70;2.97;;;;;;;7.52;100.00;99905.84;5018846;28;20029;-79
2022/09/30 00:31:08;;;;;;;3.95;3.22;;;;;;;7.50;100.00;99921.06;5042716;28;20366;-79
2022/09/30 00:33:34;;;;;;;7.15;3.80;;;;;;;7.49;100.00;99922.16;5038733;28;20026;-78
2022/09/30 00:36:00;;;;;;;7.63;3.38;;;;;;;7.46;100.00;99919.97;5056679;28;20040;-78
2022/09/30 00:38:25;;;;;;;4.85;2.78;;;;;;;7.44;100.00;99917.50;4990872;28;20035;-78
2022/09/30 00:40:51;;;;;;;3.78;3.40;;;;;;;7.41;100.00;99923.59;5040306;28;20044;-78
2022/09/30 00:43:19;;;;;;;5.35;2.97;;;;;;;7.41;100.00;99931.03;5022917;28;20396;-78
2022/09/30 00:45:57;;;;;;;5.57;3.50;;;;;;;7.38;100.00;99938.81;5008271;28;20043;-79
2022/09/30 00:48:41;;;;;;;4.68;3.38;;;;;;;7.37;100.00;99939.91;5055953;28;20024;-79
2022/09/30 00:51:06;;;;;;;4.55;3.28;;;;;;;7.36;100.00;99938.28;5069233;28;20022;-78
2022/09/30 00:53:54;;;;;;;5.15;2.97;;;;;;;7.32;100.00;99933.59;4993147;28;20036;-78
2022/09/30 00:56:21;;;;;;;6.68;3.40;;;;;;;7.30;100.00;99939.44;5055954;28;20036;-78
2022/09/30 00:59:26;;;;;;;4.80;3.28;;;;;;;7.30;100.00;99935.81;5025230;28;20663;-78
2022/09/30 01:01:51;;;;;;;5.32;3.30;;;;;;;7.27;100.00;99937.25;5026110;28;20034;-78
2022/09/30 01:04:19;;;;;;;5.28;3.10;;;;;;;7.26;100.00;99935.56;5033333;28;20040;-78
2022/09/30 01:06:45;;;;;;;5.28;2.95;;;;;;;7.25;100.00;99936.69;5007381;28;20050;-78
2022/09/30 01:09:10;;;;;;;5.22;3.40;;;;;;;7.24;100.00;99935.03;5033941;28;20033;-78
2022/09/30 01:11:36;;;;;;;3.70;3.10;;;;;;;7.19;100.00;99950.78;4991227;28;20032;-78
2022/09/30 01:14:21;;;;;;;4.05;3.50;;;;;;;7.16;100.00;99960.50;5007152;28;20044;-78
2022/09/30 01:17:02;;;;;;;4.70;3.30;;;;;;;7.16;100.00;99952.22;5008715;28;20537;-78
2022/09/30 01:20:12;;;;;;;4.40;3.50;;;;;;;7.12;100.00;99963.00;5029324;28;20048;-78
2022/09/30 01:23:16;;;;;;;5.22;3.88;;;;;;;7.11;100.00;99971.56;5006200;28;20075;-78
2022/09/30 01:25:54;;;;;;;6.78;4.15;;;;;;;7.09;100.00;99966.31;5059265;28;20123;-78
2022/09/30 01:28:45;;;;;;;3.28;2.97;;;;;;;7.08;100.00;99969.38;5022320;28;20112;-78
2022/09/30 01:31:41;;;;;;;5.10;3.40;;;;;;;7.03;100.00;99972.16;5047929;28;20064;-78
2022/09/30 01:34:16;;;;;;;4.72;3.90;;;;;;;7.06;100.00;99971.59;5063186;28;20052;-78
2022/09/30 01:37:06;;;;;;;3.65;3.25;;;;;;;7.02;100.00;99967.72;5069525;28;20100;-78
2022/09/30 01:39:46;;;;;;;4.68;3.40;;;;;;;6.98;100.00;99967.47;5053502;28;20036;-78
2022/09/30 01:42:18;;;;;;;5.47;3.17;;;;;;;6.99;100.00;99977.41;5071736;28;20083;-78
2022/09/30 01:44:47;;;;;;;5.95;3.30;;;;;;;7.00;100.00;99975.50;5051992;28;20132;-78
2022/09/30 01:47:25;;;;;;;4.53;3.20;;;;;;;7.00;100.00;99975.50;5043979;28;20043;-78
2022/09/30 01:50:14;;;;;;;5.93;3.17;;;;;;;6.94;100.00;99980.22;5039570;28;20033;-78
2022/09/30 01:52:47;;;;;;;5.18;2.80;;;;;;;6.93;100.00;99981.31;5053018;28;20033;-79
2022/09/30 01:55:13;;;;;;;;;;;;;;;6.93;100.00;99989.59;5054454;28;20036;-78
2022/09/30 01:57:49;;;;;;;3.70;3.33;;;;;;;6.91;100.00;99984.38;5055035;28;19924;-78
2022/09/30 02:00:14;;;;;;;6.90;3.47;;;;;;;6.88;100.00;99984.09;5023269;28;20552;-78
2022/09/30 02:02:50;;;;;;;4.00;2.95;;;;;;;6.87;100.00;99986.03;5071571;28;20033;-79
2022/09/30 02:05:36;;;;;;;4.00;3.03;;;;;;;6.86;100.00;99986.31;5052710;28;20036;-78
2022/09/30 02:08:24;;;;;;;5.13;3.25;;;;;;;6.83;100.00;99993.22;5039592;28;20044;-79
2022/09/30 02:10:59;;;;;;;5.35;2.90;;;;;;;6.81;100.00;99984.41;5055892;28;20065;-79
2022/09/30 02:13:34;;;;;;;3.65;2.95;;;;;;;6.82;100.00;99985.22;5055104;28;20037;-78
2022/09/30 02:16:11;;;;;;;4.60;3.47;;;;;;;6.78;100.00;99987.72;5009417;28;20029;-79
2022/09/30 02:18:58;;;;;;;4.45;3.20;;;;;;;6.76;100.00;99987.16;4991882;28;20485;-79
2022/09/30 02:21:27;;;;;;;4.80;3.15;;;;;;;6.77;100.00;99988.84;5023708;28;20485;-78
2022/09/30 02:23:56;;;;;;;5.32;3.20;;;;;;;6.75;100.00;99990.22;5030745;28;20120;-78
2022/09/30 02:26:27;;;;;;;4.82;3.05;;;;;;;6.72;100.00;99995.19;5056345;28;20032;-78
2022/09/30 02:28:55;;;;;;;4.90;3.13;;;;;;;6.72;100.00;99988.84;5037632;28;20040;-79
2022/09/30 02:31:22;;;;;;;4.43;3.10;;;;;;;6.68;100.00;99996.03;5057208;28;20040;-79
2022/09/30 02:34:10;;;;;;;4.00;2.90;;;;;;;6.69;100.00;99992.19;5049312;28;20028;-78
2022/09/30 02:37:07;;;;;;;6.03;3.22;;;;;;;6.65;100.00;100007.63;5020766;28;20040;-78
2022/09/30 02:39:39;;;;;;;4.97;2.92;;;;;;;6.64;100.00;100001.28;5020310;28;20426;-78
2022/09/30 02:42:19;;;;;;;5.45;3.08;;;;;;;6.63;100.00;99996.88;5058973;28;20100;-78
2022/09/30 02:44:46;;;;;;;4.65;3.10;;;;;;;6.63;100.00;99996.88;5007183;28;20041;-79
2022/09/30 02:47:27;;;;;;;3.90;2.95;;;;;;;6.60;100.00;99993.84;5037379;28;20039;-78
2022/09/30 02:50:06;;;;;;;5.20;3.08;;;;;;;6.61;100.00;100001.03;5019420;28;20029;-78
2022/09/30 02:53:06;;;;;;;4.07;2.92;;;;;;;6.57;100.00;100006.25;5035575;28;20033;-78
2022/09/30 02:56:04;;;;;;;4.68;3.08;;;;;;;6.55;100.00;100007.69;5022361;28;20048;-78
2022/09/30 02:58:31;;;;;;;4.72;3.00;;;;;;;6.56;100.00;100006.56;5050554;28;20080;-78
2022/09/30 03:00:57;;;;;;;4.40;3.10;;;;;;;6.53;100.00;100005.19;5035429;28;20083;-78
2022/09/30 03:03:31;;;;;;;4.15;2.85;;;;;;;6.52;100.00;100003.53;5043846;28;20028;-78
2022/09/30 03:05:57;;;;;;;4.53;2.80;;;;;;;6.51;100.00;100009.31;5054481;28;20135;-78
2022/09/30 03:08:22;;;;;;;4.30;2.83;;;;;;;6.49;100.00;100010.44;5024674;28;20033;-78
2022/09/30 03:10:49;;;;;;;4.30;3.17;;;;;;;6.49;100.00;100009.59;5007993;28;20060;-78
2022/09/30 03:13:46;;;;;;;3.80;2.38;;;;;;;6.47;100.00;100017.34;5054134;28;20033;-78
2022/09/30 03:16:27;;;;;;;4.97;3.17;;;;;;;6.43;100.00;100014.28;5037414;28;20176;-78
2022/09/30 03:18:52;;;;;;;4.63;2.78;;;;;;;6.42;100.00;100018.16;5053278;28;20485;-78
2022/09/30 03:21:36;;;;;;;3.30;2.30;;;;;;;6.41;100.00;100013.75;5024596;28;20099;-78
2022/09/30 03:24:30;;;;;;;3.15;2.17;;;;;;;6.42;100.00;100015.41;5056996;28;20052;-78
2022/09/30 03:27:14;;;;;;;5.03;2.53;;;;;;;6.39;100.00;100021.47;5054216;28;20021;-78
2022/09/30 03:30:01;;;;;;;2.78;2.47;;;;;;;6.38;100.00;100014.31;5049994;28;20508;-78
2022/09/30 03:32:32;;;;;;;3.05;2.25;;;;;;;6.36;100.00;100011.00;5070198;28;20029;-78
2022/09/30 03:35:08;;;;;;;3.42;2.50;;;;;;;6.34;100.00;100017.91;5039054;28;20096;-78
2022/09/30 03:37:49;;;;;;;2.80;2.30;;;;;;;6.33;100.00;100017.09;5021343;28;20029;-78
2022/09/30 03:40:36;;;;;;;3.05;2.28;;;;;;;6.23;100.00;100028.94;5048915;28;20037;-78
2022/09/30 03:43:11;;;;;;;2.95;2.08;;;;;;;6.24;100.00;100030.63;5056983;28;20044;-78
2022/09/30 03:45:39;;;;;;;2.97;2.00;;;;;;;6.20;100.00;100035.00;5036868;28;20068;-78
2022/09/30 03:48:06;;;;;;;2.47;2.17;;;;;;;6.17;100.00;100037.50;5037545;28;20469;-78
2022/09/30 03:50:32;;;;;;;4.50;2.15;;;;;;;6.13;100.00;100040.00;5070631;28;20040;-77
2022/09/30 03:52:58;;;;;;;2.47;1.77;;;;;;;6.10;100.00;100045.22;5056899;28;20032;-77
2022/09/30 03:55:24;;;;;;;3.05;2.10;;;;;;;6.10;100.00;100043.31;5017372;28;20039;-78
2022/09/30 03:57:50;;;;;;;3.67;2.20;;;;;;;6.04;100.00;100050.75;5053492;28;20040;-77
2022/09/30 04:00:15;;;;;;;3.08;1.90;;;;;;;6.09;100.00;100044.38;5054953;28;20084;-78
2022/09/30 04:02:41;;;;;;;2.30;1.80;;;;;;;6.06;100.00;100050.47;5007597;28;20029;-78
2022/09/30 04:05:07;;;;;;;3.60;2.00;;;;;;;5.99;100.00;100050.75;5036980;28;20028;-77
2022/09/30 04:07:33;;;;;;;3.63;1.80;;;;;;;5.98;100.00;100060.09;5023576;28;20029;-78
2022/09/30 04:09:58;;;;;;;2.28;1.75;;;;;;;5.98;100.00;100060.09;5011705;28;20540;-78
2022/09/30 04:12:24;;;;;;;2.25;1.63;;;;;;;5.96;100.00;100069.75;5023360;28;20130;-78
2022/09/30 04:14:50;;;;;;;2.22;1.63;;;;;;;5.95;100.00;100066.16;5024320;28;20075;-78
2022/09/30 04:17:15;;;;;;;5.65;1.90;;;;;;;5.93;100.00;100073.00;5024201;28;20036;-77
2022/09/30 04:19:41;;;;;;;2.28;1.80;;;;;;;5.91;100.00;100064.22;5073599;28;20044;-78
2022/09/30 04:22:06;;;;;;;2.78;1.83;;;;;;;5.89;100.00;100064.47;4996734;28;20039;-78
2022/09/30 04:24:32;;;;;;;4.40;2.20;;;;;;;5.89;100.00;100066.41;5019653;28;20386;-78
2022/09/30 04:26:57;;;;;;;3.50;1.67;;;;;;;5.85;100.00;100068.91;5073065;28;20118;-78
2022/09/30 04:29:23;;;;;;;2.58;2.00;;;;;;;5.83;100.00;100073.84;5058872;28;20148;-77
2022/09/30 04:31:48;;;;;;;2.30;1.70;;;;;;;5.82;100.00;100062.00;5012689;28;20024;-78
2022/09/30 04:34:14;;;;;;;2.80;1.98;;;;;;;5.86;100.00;100066.97;5024251;28;20087;-78
2022/09/30 04:36:39;;;;;;;3.88;1.85;;;;;;;5.79;100.00;100062.56;5023524;28;20028;-78
2022/09/30 04:39:05;;;;;;;2.72;1.88;;;;;;;5.75;100.00;100066.13;5028619;28;20098;-77
2022/09/30 04:41:31;;;;;;;4.35;3.05;;;;;;;5.75;100.00;100060.59;5072545;28;20536;-78
2022/09/30 04:43:57;;;;;;;3.70;2.15;;;;;;;5.73;100.00;100063.63;5007059;28;20075;-78
2022/09/30 04:46:22;;;;;;;2.55;1.90;;;;;;;5.72;100.00;100063.91;5058306;28;20533;-78
2022/09/30 04:48:48;;;;;;;3.47;1.75;;;;;;;5.67;100.00;100063.88;5021421;28;20026;-78
2022/09/30 04:51:15;;;;;;;2.92;1.80;;;;;;;5.68;100.00;100060.84;5026750;28;20083;-77
2022/09/30 04:53:41;;;;;;;4.22;1.90;;;;;;;5.66;100.00;100078.78;5043107;28;20033;-77
2022/09/30 04:56:06;;;;;;;3.83;2.15;;;;;;;5.68;100.00;100069.13;5020123;28;20028;-77
2022/09/30 04:58:32;;;;;;;3.20;1.98;;;;;;;5.65;100.00;100077.09;5053659;28;20444;-78
2022/09/30 05:01:05;;;;;;;4.03;2.20;;;;;;;5.63;100.00;100082.03;5027696;28;20473;-78
2022/09/30 05:03:31;;;;;;;4.55;2.08;;;;;;;5.62;100.00;100072.13;5054767;28;20032;-78
2022/09/30 05:05:57;;;;;;;2.60;1.83;;;;;;;5.60;100.00;100072.44;5055820;28;20027;-78
2022/09/30 05:08:22;;;;;;;3.22;1.90;;;;;;;5.59;100.00;100074.31;5024805;28;20124;-78
2022/09/30 05:11:00;;;;;;;2.80;2.08;;;;;;;5.54;100.00;100074.34;5025025;28;20066;-78
2022/09/30 05:13:33;;;;;;;2.28;1.77;;;;;;;5.54;100.00;100077.09;5039969;28;20032;-78
2022/09/30 05:15:58;;;;;;;3.20;2.10;;;;;;;5.51;100.00;100076.78;5035300;28;20025;-78
2022/09/30 05:18:27;;;;;;;2.95;1.75;;;;;;;5.49;100.00;100082.59;5022738;28;20098;-78
2022/09/30 05:20:52;;;;;;;3.35;2.10;;;;;;;5.50;100.00;100081.47;5022801;28;20109;-78
2022/09/30 05:23:18;;;;;;;3.97;2.08;;;;;;;5.45;100.00;100084.22;5039219;28;20398;-77
2022/09/30 05:25:44;;;;;;;3.38;2.03;;;;;;;5.42;100.00;100084.75;5072728;28;20037;-77
2022/09/30 05:28:10;;;;;;;2.53;1.98;;;;;;;5.38;100.00;100084.47;5057720;28;20109;-77
2022/09/30 05:30:35;;;;;;;2.70;1.90;;;;;;;5.38;100.00;100094.66;5006515;28;20036;-77
2022/09/30 05:33:01;;;;;;;2.92;1.90;;;;;;;5.33;100.00;100100.16;5056872;28;20035;-77
2022/09/30 05:35:27;;;;;;;4.47;1.83;;;;;;;5.32;100.00;100101.22;5057096;28;20040;-77
2022/09/30 05:37:52;;;;;;;2.67;1.80;;;;;;;5.34;100.00;100101.78;5039320;28;20119;-77
2022/09/30 05:40:18;;;;;;;2.25;2.05;;;;;;;5.32;100.00;100109.50;5023050;28;20017;-77
2022/09/30 05:42:45;;;;;;;2.28;1.90;;;;;;;5.30;100.00;100111.72;5055118;28;20033;-77
2022/09/30 05:45:11;;;;;;;4.32;1.80;;;;;;;5.29;100.00;100115.53;5024324;28;20107;-77
2022/09/30 05:47:37;;;;;;;2.33;1.90;;;;;;;5.25;100.00;100115.25;5024808;28;20020;-78
2022/09/30 05:50:03;;;;;;;2.47;2.05;;;;;;;5.26;100.00;100113.31;5019515;28;20497;-78
2022/09/30 05:52:29;;;;;;;2.60;2.05;;;;;;;5.25;100.00;100117.19;5039094;28;20056;-77
2022/09/30 05:54:56;;;;;;;2.83;2.15;;;;;;;5.21;100.00;100116.03;5054023;28;20040;-77
2022/09/30 05:57:21;;;;;;;2.38;2.13;;;;;;;5.25;100.00;100117.19;5056377;28;20037;-77
2022/09/30 05:59:47;;;;;;;2.47;2.15;;;;;;;5.24;100.00;100127.38;5005812;28;20028;-77
2022/09/30 06:02:12;;;;;;;2.05;1.75;;;;;;;5.26;100.00;100127.09;5054876;28;20469;-77
2022/09/30 06:04:38;;;;;;;2.78;2.05;;;;;;;5.17;100.00;100132.28;5022260;28;20066;-77
2022/09/30 06:07:05;;;;;;;4.90;2.10;;;;;;;5.15;100.00;100138.06;5024900;28;20034;-78
2022/09/30 06:09:30;;;;;;;2.03;1.75;;;;;;;5.20;100.00;100141.94;5003945;28;20017;-78
2022/09/30 06:11:57;;;;;;;2.70;1.75;;;;;;;5.19;100.00;100154.06;5039971;28;20036;-78
2022/09/30 06:14:23;;;;;;;2.72;1.88;;;;;;;5.16;100.00;100158.16;5027340;28;20036;-77
2022/09/30 06:16:49;;;;;;;4.97;2.15;;;;;;;5.16;100.00;100155.41;5054766;28;20028;-76
2022/09/30 06:19:14;;;;;;;2.38;1.75;;;;;;;5.19;100.00;100151.31;5037858;28;20090;-77
2022/09/30 06:21:40;;;;;;;5.32;1.80;;;;;;;5.14;100.00;100158.41;5054496;28;20389;-76
2022/09/30 06:24:08;;;;;;;1.83;1.40;;;;;;;5.20;100.00;100169.47;5005656;28;20029;-76
2022/09/30 06:26:33;;;;;;;5.68;1.80;;;;;;;5.20;100.00;100164.78;5021343;28;20036;-77
2022/09/30 06:28:59;;;;;;;4.13;1.73;;;;;;;5.23;100.00;100164.25;5037856;28;20594;-78
2022/09/30 06:31:24;;;;;;;3.20;1.73;;;;;;;5.22;100.00;100167.28;5038739;28;20028;-77
2022/09/30 06:33:53;;;;;;;3.30;1.60;;;;;;;5.22;100.00;100162.59;5056117;28;20036;-77
2022/09/30 06:36:18;;;;;;;2.60;1.90;;;;;;;5.31;100.00;100157.41;5050316;28;20053;-78
2022/09/30 06:38:44;;;;;;;6.07;2.05;;;;;;;5.36;100.00;100152.75;5021647;28;20140;-77
2022/09/30 06:41:09;;;;;;;2.78;1.60;;;;;;;5.42;100.00;100141.75;5021355;28;20045;-77
2022/09/30 06:43:35;;;;;;;2.65;1.58;;;;;;;5.49;100.00;100145.94;4988815;28;20028;-77
2022/09/30 06:46:01;;;;;;;2.08;1.63;;;;;;;5.58;100.00;100149.00;5039351;28;20377;-78
2022/09/30 06:48:28;;;;;;;5.15;1.92;;;;;;;5.69;100.00;100145.19;5004527;28;20040;-77
2022/09/30 06:50:57;;;;;;;3.15;1.70;;;;;;;5.76;100.00;100150.41;5037906;28;20029;-77
2022/09/30 06:53:22;;;;;;;3.53;1.73;;;;;;;5.89;100.00;100140.81;5004893;28;20144;-77
2022/09/30 06:55:47;;;;;;;2.17;1.60;;;;;;;5.97;100.00;100138.38;5056636;28;20029;-77
2022/09/30 06:58:13;;;;;;;2.28;1.80;;;;;;;6.09;100.00;100138.13;5020459;28;20041;-77
2022/09/30 07:00:39;;;;;;;4.43;1.60;;;;;;;6.19;100.00;100137.34;5053290;28;20029;-78
2022/09/30 07:03:08;;;;;;;4.53;1.80;;;;;;;6.31;100.00;100140.63;5031721;28;20044;-77
2022/09/30 07:05:36;;;;;;;2.00;1.65;;;;;;;6.42;100.00;100147.00;4989514;28;20028;-77
2022/09/30 07:08:01;;;;;;;2.63;1.70;;;;;;;6.54;100.00;100138.44;5021204;28;20056;-78
2022/09/30 07:10:27;;;;;;;2.90;1.98;;;;;;;6.65;100.00;100134.56;5047362;28;20037;-78
2022/09/30 07:12:53;;;;;;;4.05;2.10;;;;;;;6.76;100.00;100130.69;5001293;28;20041;-77
2022/09/30 07:15:21;;;;;;;2.65;2.00;;;;;;;6.89;100.00;100124.59;5017812;28;20064;-78
2022/09/30 07:17:52;;;;;;;4.78;1.98;;;;;;;7.02;100.00;100127.88;5035135;28;20037;-78
2022/09/30 07:20:17;;;;;;;2.20;1.67;;;;;;;7.17;100.00;100136.13;5049109;28;20045;-78
2022/09/30 07:22:44;;;;;;;2.03;1.50;;;;;;;7.30;100.00;100137.47;4999858;28;20036;-78
2022/09/30 07:25:10;;;;;;;4.93;1.65;;;;;;;7.43;100.00;100136.88;4987977;28;20079;-78
2022/09/30 07:27:36;;;;;;;3.05;1.40;;;;;;;7.59;100.00;100137.63;5019940;28;20029;-78
2022/09/30 07:30:02;;;;;;;5.18;2.08;;;;;;;7.74;100.00;100142.25;5002845;28;20036;-78
2022/09/30 07:32:27;;;;;;;4.82;2.05;;;;;;;7.87;100.00;100140.81;5001432;28;20080;-78
2022/09/30 07:34:53;;;;;;;2.63;1.80;;;;;;;8.01;100.00;100137.13;5001158;28;20029;-78
2022/09/30 07:37:18;;;;;;;4.03;2.25;;;;;;;8.15;100.00;100142.84;4966350;28;20030;-78
2022/09/30 07:39:45;;;;;;;3.20;2.30;;;;;;;8.28;100.00;100141.38;5001772;28;20030;-78
2022/09/30 07:42:12;;;;;;;4.15;2.10;;;;;;;8.42;100.00;100144.34;5036857;28;20124;-78
2022/09/30 07:44:42;;;;;;;3.83;2.63;;;;;;;8.56;100.00;100150.06;5005054;28;20034;-78
2022/09/30 07:47:11;;;;;;;3.97;2.88;;;;;;;8.70;100.00;100160.16;5039071;28;20037;-78
2022/09/30 07:49:37;;;;;;;4.93;2.42;;;;;;;8.86;100.00;100154.47;5020194;28;20072;-78
2022/09/30 07:52:03;;;;;;;4.18;2.67;;;;;;;9.02;100.00;100157.94;4993281;28;20116;-78
2022/09/30 07:54:30;;;;;;;5.35;2.67;;;;;;;9.16;100.00;100158.91;5020367;28;20051;-78
2022/09/30 07:56:56;;;;;;;3.03;2.30;;;;;;;9.31;100.00;100160.69;5010364;28;20033;-77
2022/09/30 07:59:21;;;;;;;4.07;2.75;;;;;;;9.48;100.00;100165.78;5024320;28;20029;-78
2022/09/30 08:01:47;;;;;;;5.72;2.40;;;;;;;9.63;100.00;100157.25;5022389;28;20060;-78
2022/09/30 08:04:14;;;;;;;4.82;2.58;;;;;;;9.79;100.00;100160.66;4991824;28;20029;-77
2022/09/30 08:06:42;;;;;;;3.70;2.53;;;;;;;9.95;100.00;100159.34;4986377;28;20496;-77
2022/09/30 08:09:08;;;;;;;4.15;2.40;;;;;;;10.11;100.00;100168.25;5022254;28;20045;-78
2022/09/30 08:11:34;;;;;;;3.58;2.58;;;;;;;10.28;100.00;100167.78;5046495;28;20037;-77
2022/09/30 08:14:00;;;;;;;5.05;2.40;;;;;;;10.45;100.00;100173.63;5041050;28;20029;-78
2022/09/30 08:16:25;;;;;;;5.47;2.70;;;;;;;10.63;100.00;100171.13;5041370;28;20032;-77
2022/09/30 08:18:59;;;;;;;6.45;2.83;;;;;;;10.82;100.00;100173.88;5064152;28;20064;-78
2022/09/30 08:21:25;;;;;;;3.50;2.47;;;;;;;10.96;100.00;100167.22;5008750;28;20044;-77
2022/09/30 08:23:50;;;;;;;3.53;2.70;;;;;;;11.14;100.00;100181.34;5076829;28;20040;-77
2022/09/30 08:26:16;;;;;;;7.30;2.60;;;;;;;11.30;100.00;100176.34;5040777;28;20444;-78
2022/09/30 08:28:42;;;;;;;3.53;2.10;;;;;;;11.47;100.00;100170.16;5058527;28;20478;-78
2022/09/30 08:31:10;;;;;;;4.93;2.10;;;;;;;11.63;100.00;100166.75;5024147;28;20029;-77
2022/09/30 08:33:35;;;;;;;5.68;2.92;;;;;;;11.79;100.00;100169.25;5044076;28;20025;-78
2022/09/30 08:36:04;;;;;;;5.13;2.45;;;;;;;11.94;100.00;100163.38;5058078;28;20033;-77
2022/09/30 08:38:30;;;;;;;5.00;3.10;;;;;;;12.10;100.00;100161.09;5024155;28;20029;-77
2022/09/30 08:41:40;;;;;;;4.50;2.70;;;;;;;12.29;100.00;100166.50;5073460;28;20055;-78
2022/09/30 08:44:21;;;;;;;3.70;1.80;;;;;;;12.45;100.00;100166.94;5070177;28;20125;-77
2022/09/30 08:47:10;;;;;;;5.13;2.22;;;;;;;12.63;100.00;100168.75;5037666;28;20397;-77
2022/09/30 08:49:49;;;;;;;8.60;2.10;;;;;;;12.76;100.00;100172.63;5056802;28;20040;-77
2022/09/30 08:52:26;;;;;;;4.75;2.95;;;;;;;12.95;100.00;100183.53;5047255;28;20115;-77
2022/09/30 08:54:52;;;;;;;4.72;1.90;;;;;;;13.08;100.00;100179.84;5007870;28;20029;-78
2022/09/30 08:57:18;;;;;;;4.28;2.53;;;;;;;13.23;100.00;100191.75;5040007;28;20032;-77
2022/09/30 08:59:57;;;;;;;3.45;2.70;;;;;;;13.38;100.00;100196.97;5056653;28;20040;-77
2022/09/30 09:02:29;;;;;;;5.13;2.80;;;;;;;13.51;100.00;100204.41;5041640;28;20052;-77
2022/09/30 09:05:00;;;;;;;4.53;1.63;;;;;;;13.67;100.00;100212.34;5013906;28;20037;-77
2022/09/30 09:07:31;;;;;;;8.95;3.30;;;;;;;13.73;100.00;100208.25;5058041;28;20116;-77
2022/09/30 09:09:56;;;;;;;3.03;2.50;;;;;;;13.89;100.00;100203.88;5058556;28;20049;-77
2022/09/30 09:12:24;;;;;;;4.68;2.88;;;;;;;14.00;100.00;100215.56;5056115;28;20043;-76
2022/09/30 09:15:10;;;;;;;3.38;2.88;;;;;;;14.16;100.00;100224.34;5022689;28;20575;-77
2022/09/30 09:17:58;;;;;;;6.15;2.40;;;;;;;14.29;100.00;100212.19;5071570;28;20086;-78
2022/09/30 09:20:27;;;;;;;3.15;2.72;;;;;;;14.42;100.00;100211.22;5031670;28;20055;-78
2022/09/30 09:22:53;;;;;;;4.63;2.20;;;;;;;14.59;100.00;100216.03;5024816;28;20041;-77
2022/09/30 09:25:21;;;;;;;6.45;2.70;;;;;;;14.75;100.00;100211.59;5023071;28;20032;-78
2022/09/30 09:27:53;;;;;;;5.43;2.63;;;;;;;14.93;100.00;100200.38;5056272;28;20037;-77
2022/09/30 09:30:21;;;;;;;3.22;2.72;;;;;;;15.06;100.00;100193.78;5038612;28;20037;-77
2022/09/30 09:32:54;;;;;;;3.25;2.75;;;;;;;15.25;100.00;100192.59;5041114;28;20033;-77
2022/09/30 09:35:40;;;;;;;4.88;3.25;;;;;;;15.39;100.00;100199.63;5055423;28;20037;-77
2022/09/30 09:38:34;;;;;;;3.80;2.95;;;;;;;15.56;100.00;100195.13;5040042;28;20044;-77
2022/09/30 09:41:48;;;;;;;5.28;2.92;;;;;;;15.71;100.00;100193.78;4994696;28;20075;-77
2022/09/30 09:44:43;;;;;;;3.65;2.08;;;;;;;15.87;99.96;100203.25;4951936;28;20179;-77
2022/09/30 09:47:14;;;;;;;4.97;2.65;;;;;;;15.97;98.84;100207.66;5057333;28;20029;-77
2022/09/30 09:49:54;;;;;;;5.65;2.63;;;;;;;16.02;96.88;100204.69;4995728;28;20025;-77
2022/09/30 09:52:23;;;;;;;6.60;2.70;;;;;;;16.08;96.92;100200.53;5039866;28;20033;-79
2022/09/30 09:54:51;;;;;;;3.35;2.60;;;;;;;16.16;96.08;100198.81;5027015;28;20024;-78
2022/09/30 09:57:18;;;;;;;3.42;2.97;;;;;;;16.19;95.33;100190.56;5031581;28;20029;-77
2022/09/30 10:02:59;;;;;;;4.95;2.67;;;;;;;16.31;93.11;100187.00;5047836;28;20086;-77
2022/09/30 10:05:25;;;;;;;3.22;2.05;;;;;;;16.38;93.26;100194.88;5019696;28;20032;-77
2022/09/30 10:08:06;;;;;;;4.35;2.65;;;;;;;16.44;92.50;100193.53;5010213;28;20037;-78
2022/09/30 10:11:02;;;;;;;3.42;1.90;;;;;;;16.49;92.50;100198.91;5040449;28;20058;-77
2022/09/30 10:13:37;;;;;;;3.20;2.25;;;;;;;16.57;91.05;100195.22;5040712;28;20044;-78
2022/09/30 10:16:02;;;;;;;3.55;2.53;;;;;;;16.64;91.73;100183.47;5042164;28;20095;-77
2022/09/30 10:18:31;;;;;;;4.57;2.80;;;;;;;16.72;92.41;100186.19;4998936;28;20025;-77
2022/09/30 10:21:20;;;;;;;3.78;2.33;;;;;;;16.80;91.57;100186.47;5052930;28;20673;-77
2022/09/30 10:23:45;;;;;;;4.05;2.38;;;;;;;16.87;90.91;100190.38;5020290;28;20408;-77
2022/09/30 10:26:14;;;;;;;5.40;2.75;;;;;;;16.90;90.78;100197.28;5022371;28;20036;-78
2022/09/30 10:28:49;;;;;;;4.75;2.83;;;;;;;16.98;90.55;100202.00;5041250;28;20111;-77
2022/09/30 10:31:27;;;;;;;5.35;2.70;;;;;;;17.06;90.57;100197.47;5043772;28;20029;-77
2022/09/30 10:33:58;;;;;;;3.97;2.58;;;;;;;17.11;88.51;100192.47;5052329;28;20049;-77
2022/09/30 10:36:32;;;;;;;4.00;2.83;;;;;;;17.16;87.78;100181.03;5038123;28;20037;-77
2022/09/30 10:39:22;;;;;;;5.22;2.85;;;;;;;17.22;87.25;100192.00;5046276;28;20040;-77
2022/09/30 10:41:48;;;;;;;4.28;2.83;;;;;;;17.24;84.96;100198.91;5055142;28;20040;-78
2022/09/30 10:44:22;;;;;;;3.85;2.42;;;;;;;17.30;85.47;100191.09;5007989;28;20392;-77
2022/09/30 10:46:49;;;;;;;7.40;3.20;;;;;;;17.39;86.83;100189.03;5004075;28;20114;-77
2022/09/30 10:49:25;;;;;;;3.22;2.10;;;;;;;17.49;87.49;100191.34;5054678;28;20025;-77
2022/09/30 10:51:50;;;;;;;4.32;2.40;;;;;;;17.60;87.01;100189.72;5042003;28;20033;-77
2022/09/30 10:54:55;;;;;;;3.75;2.30;;;;;;;17.71;85.59;100190.09;5040414;28;20059;-77
2022/09/30 10:57:26;;;;;;;2.13;1.58;;;;;;;17.88;84.52;100183.47;4929844;29;20531;-78
2022/09/30 11:00:21;;;;;;;2.85;1.70;;;;;;;17.97;82.44;100178.56;4939571;29;20495;-77
2022/09/30 11:03:08;;;;;;;6.28;1.52;;;;;;;18.04;82.36;100178.78;4920156;29;20043;-77
2022/09/30 11:05:43;;;;;;;2.33;1.20;;;;;;;18.09;82.34;100186.16;4939022;29;20054;-77
2022/09/30 11:08:28;;;;;;;1.90;1.20;;;;;;;18.15;81.34;100178.31;4922824;29;20519;-78
2022/09/30 11:11:10;;;;;;;1.60;1.10;;;;;;;18.21;81.19;100179.69;4935083;29;20044;-77
2022/09/30 11:13:56;;;;;;;1.83;0.80;;;;;;;18.27;80.81;100178.28;4937676;29;20043;-78
2022/09/30 11:17:06;;;;;;;2.03;0.70;;;;;;;18.36;79.85;100178.13;4941677;29;20061;-77
2022/09/30 11:19:38;;;;;;;2.80;0.55;;;;;;;18.49;79.62;100183.38;4910124;29;20040;-78
2022/09/30 11:22:21;;;;;;;2.45;0.70;;;;;;;18.61;77.30;100167.66;4877727;29;20046;-77
2022/09/30 11:24:48;;;;;;;1.58;0.60;;;;;;;18.67;76.35;100158.63;4903777;29;20536;-77
2022/09/30 11:27:13;;;;;;;0.90;0.50;;;;;;;18.80;76.82;100155.78;4927167;29;20086;-77
2022/09/30 11:29:48;;;;;;;0.88;0.60;;;;;;;18.90;76.48;100149.63;4958834;29;20039;-77
2022/09/30 11:33:08;;;;;;;0.88;0.50;;;;;;;19.03;76.19;100148.41;5033254;28;20052;-77
2022/09/30 11:35:46;;;;;;;1.80;0.60;;;;;;;19.11;75.10;100146.59;5008719;28;20054;-77
2022/09/30 11:38:43;;;;;;;2.00;0.50;;;;;;;19.20;73.33;100158.50;4988070;28;20049;-77
2022/09/30 11:41:17;;;;;;;1.45;0.47;;;;;;;19.27;73.73;100160.69;5019629;28;20045;-78
2022/09/30 11:43:52;;;;;;;0.70;0.40;;;;;;;19.31;72.39;100153.97;5001350;28;20038;-77
2022/09/30 11:46:23;;;;;;;2.40;0.43;;;;;;;19.35;71.84;100154.88;5003000;28;20049;-78
2022/09/30 11:48:56;;;;;;;2.15;0.52;;;;;;;19.39;72.58;100153.00;5017969;28;20121;-78
2022/09/30 11:51:47;;;;;;;1.17;0.47;;;;;;;19.42;71.63;100160.72;4986720;28;20108;-77
2022/09/30 11:54:32;;;;;;;2.60;0.50;;;;;;;19.43;68.88;100165.16;4986715;28;20137;-77